Time;durP1;ratioP1;P1;durP2;ratioP2;P2;SDS_P1;SDS_P2;PMS_P1;PMS_P2;Temp;Humidity;BMP_temperature;BMP_pressure;BME280_temperature;BME280_humidity;BME280_pressure;Samples;Min_cycle;Max_cycle;Signal;HPM_P1;HPM_P2
2022/03/12 00:02:14;;;;;;;16.00;13.15;;;;;;;10.18;65.65;101131.41;10462232;28;20179;-76
2022/03/12 00:07:16;;;;;;;30.35;15.75;;;;;;;10.32;64.71;101135.97;10441909;28;20188;-76
2022/03/12 00:12:18;;;;;;;17.40;13.30;;;;;;;10.40;63.08;101137.72;10422057;28;20045;-76
2022/03/12 00:17:18;;;;;;;23.80;14.30;;;;;;;10.46;62.58;101154.06;10432277;28;20037;-76
2022/03/12 00:22:20;;;;;;;27.65;14.30;;;;;;;10.43;60.91;101153.56;10425330;28;20034;-75
2022/03/12 00:27:21;;;;;;;27.27;15.68;;;;;;;9.72;63.51;101162.19;10420583;28;20087;-75
2022/03/12 00:32:21;;;;;;;24.52;15.90;;;;;;;9.23;68.06;101173.50;10419097;28;20091;-75
2022/03/12 00:37:22;;;;;;;19.08;14.95;;;;;;;8.91;73.64;101171.88;10418907;28;20035;-75
2022/03/12 00:42:22;;;;;;;22.23;15.70;;;;;;;8.76;77.78;101188.00;10402214;28;20041;-75
2022/03/12 00:47:22;;;;;;;22.13;16.05;;;;;;;8.56;80.23;101173.28;10401486;28;20041;-75
2022/03/12 00:52:23;;;;;;;22.35;15.40;;;;;;;8.54;80.37;101172.63;10419634;28;20151;-75
2022/03/12 00:57:23;;;;;;;23.40;14.70;;;;;;;8.48;79.39;101195.75;10404004;28;20507;-75
2022/03/12 01:02:24;;;;;;;19.30;14.88;;;;;;;8.52;78.08;101194.41;10400581;28;20030;-75
2022/03/12 01:07:24;;;;;;;26.50;15.55;;;;;;;8.47;78.69;101185.16;10404442;28;20400;-75
2022/03/12 01:12:25;;;;;;;19.42;14.82;;;;;;;8.41;78.58;101193.94;10459431;28;20033;-75
2022/03/12 01:17:25;;;;;;;29.25;17.25;;;;;;;8.36;78.46;101194.47;10458498;28;20037;-75
2022/03/12 01:22:32;;;;;;;27.27;17.83;;;;;;;8.42;77.57;101201.84;10459447;28;20148;-75
2022/03/12 01:27:33;;;;;;;24.88;16.35;;;;;;;8.38;78.72;101190.56;10442041;28;20443;-75
2022/03/12 01:32:34;;;;;;;24.60;14.05;;;;;;;8.36;80.21;101203.38;10458138;28;20160;-75
2022/03/12 01:37:35;;;;;;;25.13;18.27;;;;;;;8.42;80.22;101188.38;10441960;28;20040;-75
2022/03/12 01:42:36;;;;;;;21.52;16.00;;;;;;;8.50;81.59;101192.91;10458871;28;20033;-75
2022/03/12 01:47:36;;;;;;;20.80;15.50;;;;;;;8.68;81.67;101181.81;10458074;28;20116;-75
2022/03/12 01:52:37;;;;;;;22.27;16.20;;;;;;;8.83;83.92;101193.53;10457365;28;20033;-75
2022/03/12 01:57:37;;;;;;;17.50;12.57;;;;;;;8.98;86.41;101199.84;10457812;28;20083;-75
2022/03/12 02:02:38;;;;;;;27.17;13.43;;;;;;;9.16;87.80;101196.84;10457340;28;20029;-75
2022/03/12 02:07:39;;;;;;;15.52;12.02;;;;;;;9.34;88.24;101191.13;10440451;28;20057;-75
2022/03/12 02:12:39;;;;;;;16.25;12.55;;;;;;;9.45;88.97;101196.09;10456811;28;20059;-75
2022/03/12 02:17:40;;;;;;;15.30;11.70;;;;;;;9.60;88.32;101204.22;10457123;28;20476;-75
2022/03/12 02:22:40;;;;;;;16.27;11.38;;;;;;;9.67;89.66;101209.75;10456378;28;20040;-75
2022/03/12 02:27:40;;;;;;;13.48;9.95;;;;;;;9.73;89.40;101209.00;10456964;28;20064;-75
2022/03/12 02:32:44;;;;;;;14.85;10.57;;;;;;;9.82;89.70;101213.31;10441102;28;20037;-75
2022/03/12 02:37:46;;;;;;;15.88;8.80;;;;;;;9.90;90.21;101207.81;10439259;28;20152;-75
2022/03/12 02:42:48;;;;;;;17.15;10.80;;;;;;;9.96;90.14;101212.50;10455960;28;20611;-75
2022/03/12 02:47:49;;;;;;;11.57;9.45;;;;;;;9.98;90.11;101204.16;10439129;28;20080;-75
2022/03/12 02:52:50;;;;;;;11.77;8.70;;;;;;;10.09;89.66;101202.88;10438224;28;20051;-75
2022/03/12 02:57:52;;;;;;;12.73;8.57;;;;;;;10.14;89.59;101203.97;10457212;28;20032;-75
2022/03/12 03:02:55;;;;;;;9.98;7.88;;;;;;;10.16;89.77;101201.94;10456117;28;20083;-77
2022/03/12 03:07:57;;;;;;;9.18;6.57;;;;;;;10.17;89.59;101211.72;10455662;28;20123;-75
2022/03/12 03:12:58;;;;;;;10.25;7.45;;;;;;;10.18;90.07;101215.31;10438430;28;20375;-75
2022/03/12 03:18:03;;;;;;;9.88;7.45;;;;;;;10.17;89.98;101225.25;10457271;28;20076;-75
2022/03/12 03:23:06;;;;;;;8.25;6.60;;;;;;;10.14;90.42;101219.38;10459952;28;20131;-75
2022/03/12 03:28:07;;;;;;;8.77;6.15;;;;;;;10.12;90.05;101218.75;10438855;28;20368;-75
2022/03/12 03:33:10;;;;;;;9.32;5.82;;;;;;;10.21;88.76;101223.00;10455455;28;20037;-72
2022/03/12 03:38:11;;;;;;;6.88;5.78;;;;;;;10.18;89.87;101234.25;10439207;28;20033;-73
2022/03/12 03:43:19;;;;;;;8.05;5.05;;;;;;;10.18;90.06;101236.94;10458884;28;20033;-71
2022/03/12 03:48:21;;;;;;;7.07;6.22;;;;;;;10.22;89.76;101246.38;10446625;28;20512;-72
2022/03/12 03:53:23;;;;;;;7.10;4.93;;;;;;;10.23;89.76;101237.22;10462137;28;20033;-73
2022/03/12 03:58:25;;;;;;;6.45;4.70;;;;;;;10.25;89.34;101249.53;10461778;28;20451;-72
2022/03/12 04:03:29;;;;;;;6.45;4.72;;;;;;;10.20;89.35;101253.81;10460606;28;20433;-72
2022/03/12 04:08:30;;;;;;;7.20;5.30;;;;;;;10.20;89.48;101253.81;10462341;28;20064;-73
2022/03/12 04:13:30;;;;;;;7.20;4.85;;;;;;;10.15;89.28;101259.81;10460621;28;20025;-73
2022/03/12 04:18:31;;;;;;;6.20;4.57;;;;;;;10.15;89.31;101261.69;10444617;28;20372;-72
2022/03/12 04:23:32;;;;;;;5.40;4.68;;;;;;;10.07;88.79;101259.03;10445975;28;20053;-73
2022/03/12 04:28:32;;;;;;;5.40;4.88;;;;;;;9.66;91.35;101270.25;10460152;28;20037;-72
2022/03/12 04:33:33;;;;;;;4.95;4.55;;;;;;;9.44;92.33;101278.19;10443295;28;20075;-73
2022/03/12 04:38:33;;;;;;;7.85;5.32;;;;;;;9.23;93.42;101278.88;10460861;28;20025;-72
2022/03/12 04:43:34;;;;;;;6.63;5.25;;;;;;;9.15;92.84;101272.66;10460472;28;20036;-73
2022/03/12 04:48:34;;;;;;;8.65;6.18;;;;;;;9.04;94.46;101284.75;10459327;28;20041;-73
2022/03/12 04:53:35;;;;;;;5.88;5.30;;;;;;;9.03;92.49;101283.03;10440132;28;20060;-73
2022/03/12 04:58:35;;;;;;;6.50;4.25;;;;;;;8.85;95.24;101294.97;10441729;28;20041;-72
2022/03/12 05:03:36;;;;;;;8.20;4.97;;;;;;;8.86;95.41;101303.91;10459710;28;20040;-72
2022/03/12 05:08:36;;;;;;;15.05;6.65;;;;;;;8.88;95.26;101309.97;10441190;28;20064;-72
2022/03/12 05:13:37;;;;;;;6.88;5.20;;;;;;;8.78;95.16;101312.06;10457229;28;20074;-73
2022/03/12 05:18:39;;;;;;;5.25;4.40;;;;;;;8.74;92.52;101311.56;10459252;28;20128;-73
2022/03/12 05:23:39;;;;;;;5.57;4.10;;;;;;;8.55;95.66;101310.13;10441550;28;20033;-72
2022/03/12 05:28:40;;;;;;;5.45;4.80;;;;;;;8.54;95.87;101308.41;10439783;28;20033;-73
2022/03/12 05:33:40;;;;;;;8.82;5.13;;;;;;;8.52;96.47;101315.88;10458006;28;20052;-73
2022/03/12 05:38:41;;;;;;;4.65;4.25;;;;;;;8.42;96.60;101320.59;10439448;28;20033;-73
2022/03/12 05:43:44;;;;;;;5.75;5.25;;;;;;;8.35;96.92;101316.88;10457624;28;20029;-73
2022/03/12 05:48:47;;;;;;;6.68;4.47;;;;;;;8.38;96.72;101336.31;10439975;28;20375;-72
2022/03/12 05:53:48;;;;;;;6.53;5.20;;;;;;;8.34;96.59;101326.00;10439335;28;20032;-72
2022/03/12 05:58:48;;;;;;;4.65;4.25;;;;;;;8.30;97.86;101339.00;10440458;28;20036;-73
2022/03/12 06:03:49;;;;;;;5.90;4.95;;;;;;;8.40;98.47;101346.94;10457072;28;20044;-74
2022/03/12 06:08:50;;;;;;;7.85;5.75;;;;;;;8.66;95.46;101348.56;10439841;28;20145;-73
2022/03/12 06:13:54;;;;;;;4.93;4.15;;;;;;;8.85;93.65;101351.69;10458977;28;20033;-73
2022/03/12 06:18:54;;;;;;;5.50;4.03;;;;;;;8.84;93.33;101352.69;10456721;28;20072;-73
2022/03/12 06:23:56;;;;;;;5.38;4.13;;;;;;;8.81;93.78;101363.00;10438568;28;20029;-73
2022/03/12 06:28:57;;;;;;;9.02;5.10;;;;;;;8.77;94.16;101362.50;10440152;28;20107;-73
2022/03/12 06:33:58;;;;;;;14.00;4.50;;;;;;;8.89;93.11;101365.66;10456134;28;20156;-73
2022/03/12 06:38:58;;;;;;;4.60;4.00;;;;;;;8.96;92.43;101374.75;10455831;28;20095;-73
2022/03/12 06:43:59;;;;;;;7.55;4.53;;;;;;;9.00;91.81;101376.09;10455744;28;20025;-73
2022/03/12 06:49:00;;;;;;;5.40;4.55;;;;;;;9.16;90.95;101393.25;10456081;28;20036;-73
2022/03/12 06:54:00;;;;;;;4.65;3.40;;;;;;;9.24;91.14;101404.84;10456191;28;20032;-73
2022/03/12 06:59:01;;;;;;;5.10;4.43;;;;;;;9.44;89.80;101402.53;10455872;28;20036;-73
2022/03/12 07:04:01;;;;;;;9.23;4.38;;;;;;;9.55;89.86;101415.66;10454468;28;20040;-74
2022/03/12 07:09:01;;;;;;;5.72;4.38;;;;;;;9.73;89.42;101412.69;10456280;28;20053;-74
2022/03/12 07:14:04;;;;;;;4.20;3.83;;;;;;;9.92;87.95;101419.50;10456752;28;20037;-75
2022/03/12 07:19:04;;;;;;;5.53;4.00;;;;;;;9.94;87.63;101436.38;10444452;28;20033;-73
2022/03/12 07:24:05;;;;;;;5.10;4.00;;;;;;;10.02;87.35;101449.00;10462688;28;20048;-73
2022/03/12 07:29:06;;;;;;;7.90;4.32;;;;;;;10.06;86.62;101447.63;10464256;28;20468;-73
2022/03/12 07:34:06;;;;;;;4.40;4.10;;;;;;;10.00;87.05;101449.19;10463233;28;20489;-74
2022/03/12 07:39:07;;;;;;;6.10;3.63;;;;;;;10.11;nan;101453.31;10444842;28;20028;-73
2022/03/12 07:44:08;;;;;;;7.97;5.25;;;;;;;10.40;84.94;101463.47;10463439;28;20068;-72
2022/03/12 07:49:08;;;;;;;4.60;3.97;;;;;;;10.81;82.70;101475.75;10444411;28;20061;-73
2022/03/12 07:54:09;;;;;;;5.57;5.00;;;;;;;11.33;80.45;101474.84;10461909;28;20496;-71
2022/03/12 07:59:11;;;;;;;6.18;3.78;;;;;;;11.65;77.95;101470.88;10461839;28;20033;-72
2022/03/12 08:04:11;;;;;;;8.35;4.35;;;;;;;11.78;76.92;101476.44;10427535;28;20036;-71
2022/03/12 08:09:11;;;;;;;17.15;4.70;;;;;;;12.40;75.22;101476.88;10461885;28;20053;-73
2022/03/12 08:14:17;;;;;;;4.68;4.00;;;;;;;12.67;72.18;101505.97;10460163;28;20120;-72
2022/03/12 08:19:17;;;;;;;5.85;2.65;;;;;;;13.11;70.14;101501.25;10462167;28;20037;-72
2022/03/12 08:24:18;;;;;;;10.82;3.22;;;;;;;13.05;69.43;101508.34;10444322;28;20392;-73
2022/03/12 08:29:18;;;;;;;3.65;3.00;;;;;;;12.92;70.64;101516.38;10461917;28;20029;-72
2022/03/12 08:34:19;;;;;;;4.90;3.80;;;;;;;12.44;70.79;101514.31;10443789;28;20037;-73
2022/03/12 08:39:19;;;;;;;7.72;3.63;;;;;;;12.17;73.05;101536.81;10460892;28;20063;-77
2022/03/12 08:44:20;;;;;;;3.20;2.90;;;;;;;11.77;73.35;101528.16;10462390;28;20033;-74
2022/03/12 08:49:20;;;;;;;4.43;2.63;;;;;;;11.25;75.30;101540.00;10460775;28;20044;-72
2022/03/12 08:54:20;;;;;;;11.48;3.38;;;;;;;11.05;75.97;101567.66;10461032;28;20037;-73
2022/03/12 08:59:21;;;;;;;5.75;3.78;;;;;;;11.02;76.79;101581.56;10442054;28;20067;-73
2022/03/12 09:04:22;;;;;;;8.48;3.00;;;;;;;11.27;74.71;101575.91;10424734;28;20052;-73
2022/03/12 09:09:23;;;;;;;3.95;2.58;;;;;;;11.15;74.64;101565.50;10459495;28;20053;-72
2022/03/12 09:14:23;;;;;;;2.60;2.40;;;;;;;11.01;75.20;101560.91;10458519;28;20036;-72
2022/03/12 09:19:23;;;;;;;3.97;3.05;;;;;;;11.10;75.97;101570.66;10440638;28;20040;-72
2022/03/12 09:24:25;;;;;;;8.10;2.63;;;;;;;11.33;75.41;101567.88;10441195;28;20492;-73
2022/03/12 09:29:26;;;;;;;3.30;2.83;;;;;;;11.43;74.74;101570.31;10456061;28;20369;-72
2022/03/12 09:34:27;;;;;;;9.35;3.65;;;;;;;11.61;73.90;101569.91;10457356;28;20479;-72
2022/03/12 09:39:27;;;;;;;5.25;2.83;;;;;;;11.63;73.14;101576.00;10456460;28;20044;-72
2022/03/12 09:44:28;;;;;;;3.67;3.38;;;;;;;11.89;72.71;101578.25;10439635;28;20076;-72
2022/03/12 09:49:28;;;;;;;2.95;2.70;;;;;;;11.89;71.15;101585.56;10439477;28;20037;-73
2022/03/12 09:54:30;;;;;;;6.35;3.10;;;;;;;11.99;71.46;101591.53;10457261;28;20044;-74
2022/03/12 09:59:30;;;;;;;5.68;3.88;;;;;;;12.35;69.94;101588.81;10422852;28;20037;-73
2022/03/12 10:04:31;;;;;;;4.97;3.15;;;;;;;12.18;70.56;101590.06;10457682;28;20032;-72
2022/03/12 10:09:32;;;;;;;4.63;2.88;;;;;;;12.81;69.11;101591.16;10423445;28;20053;-73
2022/03/12 10:14:32;;;;;;;10.95;3.33;;;;;;;13.21;67.57;101600.50;10443686;28;20037;-74
2022/03/12 10:19:37;;;;;;;6.45;3.40;;;;;;;13.19;66.99;101601.72;10459639;28;20036;-73
2022/03/12 10:24:38;;;;;;;4.13;3.35;;;;;;;14.21;62.25;101590.16;10456849;28;20040;-74
2022/03/12 10:29:38;;;;;;;9.02;3.10;;;;;;;15.00;59.48;101581.28;10439523;28;20468;-73
2022/03/12 10:34:41;;;;;;;4.57;2.85;;;;;;;15.30;58.55;101583.56;10456016;28;20464;-73
2022/03/12 10:39:42;;;;;;;2.15;2.05;;;;;;;15.30;56.09;101572.66;10456076;28;20039;-72
2022/03/12 10:44:42;;;;;;;5.25;2.83;;;;;;;15.42;55.62;101586.50;10455298;28;20036;-73
2022/03/12 10:50:00;;;;;;;4.45;3.42;;;;;;;15.86;55.51;101577.59;10440674;28;20449;-75
2022/03/12 10:55:26;;;;;;;3.67;2.47;;;;;;;16.05;56.75;101581.28;10464658;28;20060;-73
2022/03/12 11:00:36;;;;;;;2.55;2.30;;;;;;;16.64;53.89;101582.00;10437983;28;20366;-73
2022/03/12 11:05:37;;;;;;;4.47;2.08;;;;;;;16.55;52.15;101595.09;10465163;28;20025;-72
2022/03/12 11:10:46;;;;;;;1.95;1.83;;;;;;;16.14;54.12;101604.56;10445507;28;20080;-75
2022/03/12 11:15:46;;;;;;;6.95;2.58;;;;;;;16.70;52.12;101600.25;10464276;28;20033;-77
2022/03/12 11:20:46;;;;;;;3.00;2.42;;;;;;;16.71;50.91;101605.50;10464537;28;20095;-76
2022/03/12 11:25:56;;;;;;;2.75;2.50;;;;;;;15.98;52.85;101614.06;10445405;28;20037;-76
2022/03/12 11:30:57;;;;;;;7.43;2.42;;;;;;;15.53;53.64;101622.16;10463044;28;20029;-77
2022/03/12 11:35:58;;;;;;;3.25;2.70;;;;;;;15.40;54.15;101610.44;10444302;28;20515;-72
2022/03/12 11:41:09;;;;;;;9.55;3.35;;;;;;;15.55;53.06;101609.13;10462409;28;20025;-72
2022/03/12 11:46:11;;;;;;;5.40;2.72;;;;;;;16.28;52.01;101616.28;10460633;28;20033;-72
2022/03/12 11:51:21;;;;;;;2.53;2.22;;;;;;;16.54;51.61;101617.19;10460365;28;20506;-72
2022/03/12 11:56:24;;;;;;;5.68;2.13;;;;;;;16.57;50.82;101597.63;10444776;28;20065;-71
2022/03/12 12:01:24;;;;;;;7.60;2.45;;;;;;;16.25;51.37;101608.50;10461100;28;20036;-72
2022/03/12 12:06:26;;;;;;;4.80;2.92;;;;;;;16.63;51.52;101602.19;10461205;28;20111;-73
2022/03/12 12:11:27;;;;;;;9.60;2.78;;;;;;;17.61;51.47;101596.97;10409449;28;20053;-72
2022/03/12 12:16:29;;;;;;;3.33;3.03;;;;;;;17.65;48.16;101591.84;10419748;28;20034;-72
2022/03/12 12:21:29;;;;;;;5.18;3.38;;;;;;;17.65;46.41;101589.94;10402955;28;20041;-72
2022/03/12 12:26:30;;;;;;;3.20;2.97;;;;;;;16.91;48.30;101588.97;10418589;28;20084;-72
2022/03/12 12:31:30;;;;;;;5.18;2.47;;;;;;;17.02;48.74;101590.16;10401165;28;20500;-71
2022/03/12 12:36:30;;;;;;;4.47;2.28;;;;;;;17.62;48.40;101590.41;10419103;28;20092;-72
2022/03/12 12:41:52;;;;;;;2.28;1.75;;;;;;;17.62;48.73;101595.06;10340462;28;20046;-71
2022/03/12 12:46:54;;;;;;;5.18;2.30;;;;;;;17.61;46.70;101585.13;10417409;28;20037;-73
2022/03/12 12:51:55;;;;;;;3.13;1.83;;;;;;;18.16;45.70;101581.56;10402120;28;20116;-72
2022/03/12 12:56:59;;;;;;;1.88;1.77;;;;;;;17.85;44.55;101576.03;10417673;28;20108;-73
2022/03/12 13:01:59;;;;;;;2.65;2.05;;;;;;;17.45;45.88;101581.09;10416672;28;20057;-72
2022/03/12 13:07:19;;;;;;;3.83;2.80;;;;;;;16.17;47.91;101586.88;10400301;28;20060;-73
2022/03/12 13:12:35;;;;;;;5.35;3.67;;;;;;;15.37;49.66;101584.38;10401369;28;20092;-74
2022/03/12 13:17:36;;;;;;;2.40;2.20;;;;;;;15.23;50.24;101582.75;10400897;28;20029;-73
2022/03/12 13:22:42;;;;;;;2.72;2.38;;;;;;;15.29;49.91;101571.81;10417044;28;20056;-72
2022/03/12 13:27:42;;;;;;;3.23;2.10;;;;;;;14.94;51.21;101565.78;10417104;28;20036;-73
2022/03/12 13:32:45;;;;;;;4.18;2.00;;;;;;;15.10;51.35;101565.34;10398899;28;20839;-73
2022/03/12 13:37:53;;;;;;;3.03;2.28;;;;;;;14.49;52.84;101573.69;10489595;28;20376;-74
2022/03/12 13:42:58;;;;;;;3.45;2.53;;;;;;;14.46;51.83;101579.53;10494312;28;20045;-73
2022/03/12 13:47:59;;;;;;;6.93;2.42;;;;;;;14.32;52.97;101577.81;10490206;28;20036;-73
2022/03/12 13:53:04;;;;;;;14.40;2.92;;;;;;;14.39;53.33;101565.91;10472707;28;20052;-76
2022/03/12 13:58:04;;;;;;;2.85;2.25;;;;;;;14.34;52.86;101565.66;10489125;28;20032;-73
2022/03/12 14:03:05;;;;;;;5.60;2.15;;;;;;;14.44;52.84;101557.09;10503954;28;20032;-73
2022/03/12 14:08:23;;;;;;;1.67;1.58;;;;;;;14.37;52.86;101554.34;10509147;28;20040;-71
2022/03/12 14:13:23;;;;;;;3.00;1.90;;;;;;;14.32;53.55;101554.13;10488849;28;20037;-72
2022/03/12 14:18:25;;;;;;;3.15;1.80;;;;;;;14.49;53.81;101554.59;10491323;28;20507;-73
2022/03/12 14:23:26;;;;;;;5.32;2.22;;;;;;;14.28;54.13;101541.13;10492572;28;20420;-74
2022/03/12 14:28:26;;;;;;;2.25;2.08;;;;;;;14.23;54.38;101546.34;10487948;28;20037;-74
2022/03/12 14:33:26;;;;;;;2.42;2.22;;;;;;;14.07;55.25;101545.72;10488745;28;20105;-73
2022/03/12 14:38:29;;;;;;;2.50;2.30;;;;;;;13.85;55.73;101550.44;10475450;28;20036;-73
2022/03/12 14:43:31;;;;;;;8.35;2.25;;;;;;;13.62;56.74;101539.84;10492914;28;20546;-72
2022/03/12 14:48:32;;;;;;;6.25;2.63;;;;;;;13.62;56.47;101534.41;10464049;28;20083;-72
2022/03/12 14:53:44;;;;;;;6.22;2.97;;;;;;;13.68;55.86;101535.47;10459337;28;20397;-73
2022/03/12 14:58:44;;;;;;;5.47;2.03;;;;;;;13.72;55.42;101529.44;10458878;28;20131;-72
2022/03/12 15:03:52;;;;;;;10.90;3.00;;;;;;;13.71;54.88;101533.19;10458270;28;20048;-74
2022/03/12 15:08:58;;;;;;;6.78;2.20;;;;;;;13.70;55.16;101539.69;10459218;28;20037;-75
2022/03/12 15:13:59;;;;;;;1.98;1.75;;;;;;;13.63;55.45;101527.94;10441940;28;20033;-73
2022/03/12 15:19:01;;;;;;;2.60;1.60;;;;;;;13.63;55.56;101527.94;10389666;28;20480;-74
2022/03/12 15:24:08;;;;;;;2.47;2.28;;;;;;;13.61;56.08;101513.69;10417143;28;20036;-73
2022/03/12 15:29:09;;;;;;;5.00;2.30;;;;;;;13.56;56.13;101505.31;10417014;28;20041;-74
2022/03/12 15:34:09;;;;;;;4.55;2.65;;;;;;;13.48;56.94;101514.47;10416984;28;20057;-74
2022/03/12 15:39:10;;;;;;;5.78;3.22;;;;;;;13.67;55.95;101502.00;10416504;28;20041;-72
2022/03/12 15:44:10;;;;;;;3.10;2.80;;;;;;;13.58;56.11;101497.75;10417047;28;20065;-72
2022/03/12 15:49:10;;;;;;;7.45;2.75;;;;;;;13.43;56.10;101494.34;10412560;28;20505;-73
2022/03/12 15:54:12;;;;;;;8.90;3.78;;;;;;;13.24;56.49;101496.78;10416302;28;20049;-72
2022/03/12 15:59:12;;;;;;;7.10;3.65;;;;;;;13.12;57.01;101489.34;10414986;28;20385;-73
2022/03/12 16:04:14;;;;;;;10.05;3.85;;;;;;;13.15;57.03;101487.06;10431849;28;20034;-73
2022/03/12 16:09:14;;;;;;;6.35;3.00;;;;;;;13.24;57.22;101496.78;10416157;28;20041;-72
2022/03/12 16:14:16;;;;;;;5.78;3.55;;;;;;;13.10;57.53;101494.13;10415107;28;20080;-72
2022/03/12 16:19:19;;;;;;;5.55;3.58;;;;;;;12.99;58.03;101482.78;10416066;28;20091;-72
2022/03/12 16:24:21;;;;;;;5.38;4.88;;;;;;;12.84;58.21;101465.72;10414874;28;20067;-73
2022/03/12 16:29:22;;;;;;;4.95;3.88;;;;;;;12.83;58.32;101461.34;10415520;28;20400;-73
2022/03/12 16:34:22;;;;;;;7.28;3.42;;;;;;;12.87;58.49;101456.34;10430754;28;20041;-73
2022/03/12 16:39:22;;;;;;;8.85;4.10;;;;;;;12.95;58.12;101454.28;10413905;28;20114;-72
2022/03/12 16:44:23;;;;;;;3.78;3.47;;;;;;;13.04;57.29;101457.69;10415231;28;20033;-73
2022/03/12 16:49:23;;;;;;;3.63;3.33;;;;;;;13.08;57.15;101449.97;10415127;28;20033;-73
2022/03/12 16:54:24;;;;;;;10.60;3.75;;;;;;;13.14;56.80;101458.16;10397051;28;20057;-72
2022/03/12 16:59:24;;;;;;;5.20;4.00;;;;;;;13.18;57.06;101450.47;10414827;28;20404;-72
2022/03/12 17:04:25;;;;;;;8.63;4.00;;;;;;;13.16;57.41;101455.25;10414615;28;20029;-72
2022/03/12 17:09:25;;;;;;;6.03;3.72;;;;;;;13.16;57.07;101455.25;10412527;28;20095;-72
2022/03/12 17:14:30;;;;;;;10.55;3.65;;;;;;;13.06;57.17;101458.34;10413344;28;20146;-72
2022/03/12 17:19:31;;;;;;;9.80;4.07;;;;;;;13.03;57.37;101461.47;10414013;28;20033;-72
2022/03/12 17:24:32;;;;;;;3.63;3.33;;;;;;;12.97;57.47;101454.09;10413507;28;20067;-72
2022/03/12 17:29:33;;;;;;;16.75;4.18;;;;;;;12.95;57.78;101462.44;10412758;28;20488;-72
2022/03/12 17:34:34;;;;;;;8.20;4.97;;;;;;;12.97;58.17;101449.50;10411695;28;20494;-73
2022/03/12 17:39:34;;;;;;;17.05;4.80;;;;;;;12.93;57.85;101450.13;10413139;28;20030;-72
2022/03/12 17:44:35;;;;;;;7.03;3.55;;;;;;;12.90;57.51;101445.91;10412149;28;20030;-72
2022/03/12 17:49:36;;;;;;;5.75;3.67;;;;;;;12.91;58.04;101447.59;10412500;28;20367;-73
2022/03/12 17:54:37;;;;;;;17.20;4.13;;;;;;;12.83;57.83;101436.88;10413783;28;20033;-72
2022/03/12 17:59:39;;;;;;;13.52;3.47;;;;;;;12.92;57.89;101443.84;10395787;28;20037;-73
2022/03/12 18:04:43;;;;;;;6.15;3.38;;;;;;;12.94;57.73;101435.47;10413301;28;20517;-73
2022/03/12 18:09:46;;;;;;;10.40;3.60;;;;;;;12.89;58.75;101427.06;10411261;28;20045;-73
2022/03/12 18:14:46;;;;;;;7.95;3.92;;;;;;;12.87;58.81;101418.28;10411845;28;20060;-73
2022/03/12 18:19:47;;;;;;;8.63;3.72;;;;;;;12.80;59.81;101424.53;10413058;28;20084;-73
2022/03/12 18:24:48;;;;;;;5.55;2.83;;;;;;;12.81;60.03;101414.50;10420359;28;20057;-73
2022/03/12 18:29:48;;;;;;;8.38;3.35;;;;;;;12.76;60.51;101415.09;10420701;28;20034;-73
2022/03/12 18:34:50;;;;;;;4.97;3.50;;;;;;;12.72;61.19;101411.06;10419044;28;20060;-73
2022/03/12 18:39:52;;;;;;;14.90;4.38;;;;;;;12.72;61.61;101413.78;10419286;28;20068;-74
2022/03/12 18:44:53;;;;;;;5.72;4.68;;;;;;;12.56;63.20;101404.06;10419761;28;20036;-73
2022/03/12 18:49:54;;;;;;;9.18;4.00;;;;;;;12.56;63.56;101416.81;10402668;28;20030;-73
2022/03/12 18:54:54;;;;;;;8.68;4.30;;;;;;;12.43;64.86;101401.25;10419891;28;20474;-74
2022/03/12 18:59:54;;;;;;;6.18;4.35;;;;;;;12.41;64.91;101399.78;10419629;28;20038;-74
2022/03/12 19:04:55;;;;;;;5.63;3.97;;;;;;;12.40;65.43;101407.09;10419806;28;20112;-73
2022/03/12 19:09:55;;;;;;;8.93;4.82;;;;;;;12.42;65.34;101398.75;10419007;28;20025;-73
2022/03/12 19:14:56;;;;;;;5.55;3.97;;;;;;;12.49;65.33;101399.66;10419252;28;20128;-73
2022/03/12 19:19:57;;;;;;;6.07;4.53;;;;;;;12.52;64.76;101399.25;10419178;28;20033;-73
2022/03/12 19:24:57;;;;;;;13.70;5.25;;;;;;;12.52;65.34;101404.69;10418807;28;20144;-73
2022/03/12 19:29:58;;;;;;;9.00;5.45;;;;;;;12.54;65.05;101406.16;10418582;28;20038;-73
2022/03/12 19:35:00;;;;;;;7.10;5.38;;;;;;;12.53;65.45;101406.34;10418727;28;20474;-73
2022/03/12 19:40:04;;;;;;;6.47;4.57;;;;;;;12.46;65.62;101391.88;10418128;28;20052;-74
2022/03/12 19:45:05;;;;;;;12.10;4.68;;;;;;;12.55;64.90;101396.13;10418164;28;20037;-73
2022/03/12 19:50:06;;;;;;;7.63;4.43;;;;;;;12.55;64.90;101399.69;10416706;28;20042;-72
2022/03/12 19:55:07;;;;;;;12.65;4.68;;;;;;;12.57;64.37;101394.91;10417689;28;20030;-73
2022/03/12 20:00:08;;;;;;;5.35;4.03;;;;;;;12.59;64.12;101391.16;10417452;28;20339;-72
2022/03/12 20:05:08;;;;;;;8.20;4.65;;;;;;;12.62;63.73;101397.00;10416439;28;20117;-73
2022/03/12 20:10:10;;;;;;;6.55;4.32;;;;;;;12.66;63.58;101390.13;10416888;28;20491;-73
2022/03/12 20:15:10;;;;;;;5.47;4.68;;;;;;;12.67;63.46;101389.13;10415653;28;20034;-73
2022/03/12 20:20:12;;;;;;;4.43;4.03;;;;;;;12.55;64.14;101394.25;10416796;28;20452;-72
2022/03/12 20:25:12;;;;;;;5.35;4.40;;;;;;;12.55;63.59;101385.28;10415103;28;20425;-72
2022/03/12 20:30:13;;;;;;;8.18;4.95;;;;;;;12.53;63.87;101390.88;10432068;28;20045;-73
2022/03/12 20:35:14;;;;;;;7.47;5.38;;;;;;;12.48;64.35;101376.25;10415697;28;20053;-73
2022/03/12 20:40:16;;;;;;;5.68;4.97;;;;;;;12.52;64.00;101391.09;10397373;28;20064;-72
2022/03/12 20:45:17;;;;;;;8.55;5.30;;;;;;;12.52;64.13;101389.22;10415251;28;20033;-73
2022/03/12 20:50:17;;;;;;;5.82;4.35;;;;;;;12.52;64.37;101391.09;10415085;28;20033;-74
2022/03/12 20:55:18;;;;;;;10.77;5.72;;;;;;;12.55;64.07;101393.41;10414319;28;20026;-73
2022/03/12 21:00:19;;;;;;;10.88;6.07;;;;;;;12.49;63.82;101386.06;10413777;28;20065;-73
2022/03/12 21:05:26;;;;;;;6.20;4.82;;;;;;;12.48;64.31;101392.53;10430819;28;20065;-73
2022/03/12 21:10:28;;;;;;;5.97;5.32;;;;;;;12.45;63.92;101382.06;10414508;28;20045;-72
2022/03/12 21:15:28;;;;;;;5.03;4.22;;;;;;;12.42;64.49;101398.75;10397180;28;20033;-73
2022/03/12 21:20:31;;;;;;;7.22;4.63;;;;;;;12.45;64.27;101384.78;10415189;28;20114;-74
2022/03/12 21:25:31;;;;;;;7.53;4.80;;;;;;;12.36;65.08;101377.81;10414878;28;20385;-73
2022/03/12 21:30:32;;;;;;;7.95;5.50;;;;;;;12.36;64.82;101392.22;10430373;28;20033;-73
2022/03/12 21:35:35;;;;;;;7.20;5.70;;;;;;;12.21;65.68;101389.59;10413900;28;20046;-72
2022/03/12 21:40:37;;;;;;;7.38;5.43;;;;;;;11.99;67.29;101385.22;10414399;28;20049;-73
2022/03/12 21:45:38;;;;;;;14.20;5.80;;;;;;;12.00;67.07;101379.63;10412992;28;20539;-72
2022/03/12 21:50:38;;;;;;;8.73;7.18;;;;;;;12.02;67.47;101382.13;10412952;28;20025;-73
2022/03/12 21:55:39;;;;;;;5.20;4.53;;;;;;;12.09;65.26;101383.88;10415371;28;20374;-73
2022/03/12 22:00:40;;;;;;;4.13;3.80;;;;;;;12.10;64.46;101379.28;10422129;28;20042;-74
2022/03/12 22:05:40;;;;;;;3.70;3.40;;;;;;;12.05;64.42;101392.59;10421463;28;20423;-73
2022/03/12 22:10:41;;;;;;;2.67;2.47;;;;;;;11.93;64.01;101386.84;10404590;28;20106;-73
2022/03/12 22:15:42;;;;;;;2.75;2.50;;;;;;;11.82;64.29;101387.34;10421128;28;20040;-73
2022/03/12 22:20:43;;;;;;;4.10;2.75;;;;;;;11.77;64.05;101385.22;10420922;28;20095;-73
2022/03/12 22:25:43;;;;;;;3.38;3.10;;;;;;;11.77;64.68;101376.22;10420019;28;20045;-73
2022/03/12 22:30:43;;;;;;;2.90;2.60;;;;;;;11.69;64.52;101379.91;10420782;28;20061;-73
2022/03/12 22:35:44;;;;;;;2.17;2.00;;;;;;;11.66;65.34;101383.00;10418647;28;20079;-72
2022/03/12 22:40:50;;;;;;;3.10;2.72;;;;;;;11.58;65.21;101374.97;10420834;28;20041;-73
2022/03/12 22:45:53;;;;;;;3.35;3.08;;;;;;;11.56;65.90;101391.47;10403626;28;20034;-73
2022/03/12 22:50:54;;;;;;;2.58;2.35;;;;;;;11.38;66.79;101377.47;10418583;28;20136;-73
2022/03/12 22:55:54;;;;;;;4.63;3.00;;;;;;;11.35;66.80;101384.13;10418155;28;20026;-73
2022/03/12 23:00:58;;;;;;;3.45;2.35;;;;;;;11.24;67.27;101392.75;10419240;28;20029;-72
2022/03/12 23:11:18;;;;;;;2.35;2.15;;;;;;;11.08;68.33;101379.44;10422723;28;20037;-72